Iran A319 at Kermanshah on Feb 1st 2020, overran runway on landing

Last Update: February 4, 2020 / 16:25:09 GMT/Zulu time

Bookmark this article
Incident Facts

Date of incident
Feb 1, 2020

Classification
Incident

Airline
Iran Air

Flight number
IR-283

Destination
Kermanshah, Iran

Aircraft Registration
EP-IEQ

Aircraft Type
Airbus A319

ICAO Type Designator
A319

An Iran Air Airbus A319-100, registration EP-IEQ performing flight IR-283 from Tehran Mehrabad to Kermanshah (Iran) with 102 passengers and 8 crew, landed on Kermanshah's runway 29 at about 02:30Z but overran the end of the runway by about 6 meters/20 feet and came to a stop with the nose gear on soft ground. There were no injuries, the aircraft sustained minor if any damage.

Iran's AIB reported the aircraft was to turn off the runway via taxiway A and came to a stop between taxiways A and B.

The airline reported there had been no technical defect, the aircraft skidded when it attempted to turn onto the taxiway.

On Feb 2nd 2020 Iran's AIB released a short note in Persian stating that the aircraft overran the end of the runway due to snow and rain and subsequently went off the paved surface of the runway to the right about 15 meters ahead of taxiway A. The aircraft came to a stop with the nose gear 10 meters off the right runway edge and the right main gear 3 meters off the right runway edge, both on soft ground sinking about 30-35cm into the soft ground, the left main gear remained on the paved surface of the runway edge. The crew immediately notified tower, the passengers disembarked onto the runway via the aft left door and mobile stairs. The aircraft was subsequently towed back onto the runway, the #1 engine was started and the aircraft taxied to the apron. Later the aircraft positioned back to Tehran without passengers. The CAO rated the occurrence an incident and decided to not open an investigation according to ICAO Annex 13. Iran Air is conducting an internal investigation and is going to report their results to the AIB.

Metars:
OICC 010400Z 28012KT 0800 R29/0800D -SN FG FEW010 OVC060 M01/M02 Q1012 A2989=
OICC 010330Z 31010KT 0900 R29/0900U -SN FG FEW010 FEW040CB OVC060 M01/M02 Q1011 A2986=
OICC 010300Z 30012KT 0400 R29/0400U SN FG FEW010 FEW035CB OVC060 M01/M02 Q1010 A2985=
COR OICC 010230Z 30017KT 0300 R29/0300D SHSN FG FEW010 SCT035CB OVC060 M00/M01 Q1010 A2983=
OICC 010200Z 15014KT 7000 -RA FEW015 OVC070 03/01 Q1009 A2982=
OICC 010100Z 14014KT 6000 -RA FEW020 FEW040CB BKN070 04/02 Q1009 A2980=
OICC 010000Z 13012KT 7000 -SHRA FEW020 SCT040CB BKN070 04/01 Q1010 A2983=
OICC 312300Z 13012KT 9000 -SHRA FEW030 FEW035CB OVC060 05/M00 Q1010 A2984=
OICC 312200Z 12012KT 9999 FEW045 BKN070 06/M06 Q1011 A2985=
Incident Facts

Date of incident
Feb 1, 2020

Classification
Incident

Airline
Iran Air

Flight number
IR-283

Destination
Kermanshah, Iran

Aircraft Registration
EP-IEQ

Aircraft Type
Airbus A319

ICAO Type Designator
A319

This article is published under license from Avherald.com. © of text by Avherald.com.
Article source

You can read 2 more free articles without a subscription.

Subscribe now and continue reading without any limits!

Are you a subscriber? Login
Subscribe

Read unlimited articles and receive our daily update briefing. Gain better insights into what is happening in commercial aviation safety.

Send tip

Support AeroInside by sending a small tip amount.

Related articles

Newest articles

Photo of blog illustration
Tips for Success in Flight School

One of the most serious decisions people make is choosing a career path. If you get it right, you’ll enjoy your career despite the challenges…

Subscribe today

Are you researching aviation incidents? Get access to AeroInside Insights, unlimited read access and receive the daily newsletter.

Pick your plan and subscribe

Partner

Blockaviation logo

A new way to document and demonstrate airworthiness compliance and aircraft value. Find out more.

ELITE Logo

ELITE Simulation Solutions is a leading global provider of Flight Simulation Training Devices, IFR training software as well as flight controls and related services. Find out more.

Blue Altitude Logo

Your regulation partner, specialists in aviation safety and compliance; providing training, auditing, and consultancy services. Find out more.

AeroInside Blog
Popular aircraft
Airbus A320
Boeing 737-800
Boeing 737-800 MAX
Popular airlines
American Airlines
United
Delta
Air Canada
Lufthansa
British Airways